Time;durP1;ratioP1;P1;durP2;ratioP2;P2;SDS_P1;SDS_P2;PMS_P1;PMS_P2;Temp;Humidity;BMP_temperature;BMP_pressure;BME280_temperature;BME280_humidity;BME280_pressure;Samples;Min_cycle;Max_cycle;Signal;HPM_P1;HPM_P2
2020/12/10 00:00:50;;;;;;;15.57;8.57;;;2.10;99.90;;;;;;5094655;28;20462;-67
2020/12/10 00:03:17;;;;;;;15.00;9.63;;;2.10;99.90;;;;;;5094678;28;20410;-67
2020/12/10 00:05:43;;;;;;;14.97;8.60;;;2.10;99.90;;;;;;5094529;28;20479;-67
2020/12/10 00:08:10;;;;;;;19.67;9.33;;;2.20;99.90;;;;;;5094630;28;20802;-68
2020/12/10 00:10:36;;;;;;;18.03;9.70;;;2.20;99.90;;;;;;5094359;28;20460;-67
2020/12/10 00:13:02;;;;;;;14.77;8.77;;;2.20;99.90;;;;;;5094518;28;20424;-67
2020/12/10 00:15:28;;;;;;;17.70;8.60;;;2.20;99.90;;;;;;5094465;28;20407;-67
2020/12/10 00:17:55;;;;;;;16.10;8.83;;;2.20;99.90;;;;;;5094396;28;20447;-68
2020/12/10 00:20:22;;;;;;;17.20;9.60;;;2.20;99.90;;;;;;5094259;28;20463;-68
2020/12/10 00:22:48;;;;;;;17.67;9.17;;;2.10;99.90;;;;;;5094275;28;20807;-67
2020/12/10 00:25:14;;;;;;;18.33;9.17;;;2.00;99.90;;;;;;5094147;28;20483;-67
2020/12/10 00:27:41;;;;;;;18.00;8.87;;;2.00;99.90;;;;;;5094185;28;20444;-67
2020/12/10 00:30:08;;;;;;;18.27;9.20;;;2.00;99.90;;;;;;5093762;28;20466;-67
2020/12/10 00:32:34;;;;;;;14.90;8.40;;;2.00;99.90;;;;;;5093852;28;20958;-67
2020/12/10 00:35:01;;;;;;;16.43;10.33;;;2.00;99.90;;;;;;5093879;28;20479;-67
2020/12/10 00:37:28;;;;;;;16.90;8.60;;;2.00;99.90;;;;;;5094033;28;20443;-67
2020/12/10 00:39:56;;;;;;;17.00;8.90;;;2.10;99.90;;;;;;5093925;28;20486;-67
2020/12/10 00:42:22;;;;;;;14.57;8.57;;;2.10;99.90;;;;;;5093954;28;20779;-67
2020/12/10 00:44:48;;;;;;;14.83;8.67;;;2.10;99.90;;;;;;5093551;28;20479;-67
2020/12/10 00:47:17;;;;;;;19.33;10.90;;;2.20;99.90;;;;;;5093903;28;20440;-69
2020/12/10 00:49:43;;;;;;;15.93;9.37;;;2.20;99.90;;;;;;5093505;28;20415;-68
2020/12/10 00:52:10;;;;;;;19.20;9.87;;;2.00;99.90;;;;;;5093825;28;20444;-68
2020/12/10 00:54:37;;;;;;;20.97;10.17;;;2.10;99.90;;;;;;5093459;28;20432;-68
2020/12/10 00:57:03;;;;;;;17.93;9.13;;;2.00;99.90;;;;;;5093773;28;20439;-69
2020/12/10 00:59:29;;;;;;;16.90;9.10;;;2.10;99.90;;;;;;5093167;28;20443;-69
2020/12/10 01:01:55;;;;;;;17.57;10.07;;;2.10;99.90;;;;;;5093721;28;20851;-68
2020/12/10 01:04:21;;;;;;;15.00;9.07;;;2.10;99.90;;;;;;5093556;28;20426;-68
2020/12/10 01:06:48;;;;;;;16.90;8.70;;;2.10;99.90;;;;;;5093628;28;20415;-68
2020/12/10 01:09:14;;;;;;;16.43;9.17;;;2.10;99.90;;;;;;5093622;28;20818;-69
2020/12/10 01:11:41;;;;;;;17.10;9.40;;;2.10;99.90;;;;;;5093493;28;20463;-68
2020/12/10 01:14:07;;;;;;;20.50;10.63;;;2.10;99.90;;;;;;5093552;28;20440;-69
2020/12/10 01:16:35;;;;;;;20.20;9.30;;;2.10;99.90;;;;;;5094346;28;20447;-68
2020/12/10 01:19:01;;;;;;;18.13;9.10;;;2.10;99.90;;;;;;5093486;28;20455;-69
2020/12/10 01:21:31;;;;;;;19.17;9.37;;;2.20;99.90;;;;;;5093064;28;20975;-68
2020/12/10 01:23:58;;;;;;;21.60;10.90;;;2.20;99.90;;;;;;5093468;28;20447;-68
2020/12/10 01:26:25;;;;;;;17.00;8.43;;;2.20;99.90;;;;;;5093378;28;20502;-68
2020/12/10 01:28:52;;;;;;;19.70;9.87;;;2.00;99.90;;;;;;5093440;28;20435;-68
2020/12/10 01:31:18;;;;;;;19.50;9.93;;;2.00;99.90;;;;;;5093339;28;20463;-68
2020/12/10 01:33:44;;;;;;;14.10;8.60;;;1.80;99.90;;;;;;5093357;28;20450;-69
2020/12/10 01:36:16;;;;;;;19.47;9.63;;;1.90;99.90;;;;;;5092898;28;20442;-68
2020/12/10 01:38:43;;;;;;;15.33;8.47;;;1.90;99.90;;;;;;5093401;28;20432;-68
2020/12/10 01:41:09;;;;;;;18.40;9.50;;;2.00;99.90;;;;;;5093252;28;20475;-69
2020/12/10 01:43:35;;;;;;;17.03;9.07;;;2.00;99.90;;;;;;5092989;28;20927;-69
2020/12/10 01:46:02;;;;;;;19.63;9.63;;;2.10;99.90;;;;;;5093206;28;20467;-68
2020/12/10 01:48:28;;;;;;;19.67;10.57;;;2.10;99.90;;;;;;5093224;28;20443;-68
2020/12/10 01:50:54;;;;;;;17.20;9.70;;;2.10;99.90;;;;;;5093112;28;20470;-68
2020/12/10 01:53:21;;;;;;;18.17;9.53;;;2.00;99.90;;;;;;5093213;28;20466;-68
2020/12/10 01:55:47;;;;;;;19.17;9.80;;;2.00;99.90;;;;;;5093233;28;20424;-68
2020/12/10 01:58:13;;;;;;;17.60;9.63;;;2.00;99.90;;;;;;5092871;28;20955;-68
2020/12/10 02:00:39;;;;;;;17.30;9.77;;;2.00;99.90;;;;;;5093113;28;20475;-68
2020/12/10 02:03:06;;;;;;;18.10;8.53;;;2.00;99.90;;;;;;5093098;28;20444;-68
2020/12/10 02:05:41;;;;;;;20.47;9.43;;;2.00;99.90;;;;;;5093086;28;20468;-68
2020/12/10 02:08:07;;;;;;;16.63;9.10;;;2.00;99.90;;;;;;5093155;28;20424;-68
2020/12/10 02:10:33;;;;;;;19.10;9.83;;;2.00;99.90;;;;;;5094199;28;20474;-69
2020/12/10 02:12:59;;;;;;;18.30;8.60;;;2.10;99.90;;;;;;5096889;28;20772;-68
2020/12/10 02:15:25;;;;;;;17.03;9.40;;;2.00;99.90;;;;;;5096817;28;20435;-68
2020/12/10 02:17:54;;;;;;;20.13;10.10;;;2.00;99.90;;;;;;5096729;28;20436;-68
2020/12/10 02:20:21;;;;;;;18.00;8.90;;;1.90;99.90;;;;;;5096257;28;20953;-68
2020/12/10 02:22:51;;;;;;;24.43;11.30;;;1.90;99.90;;;;;;5096637;28;20513;-68
2020/12/10 02:25:17;;;;;;;20.23;10.43;;;1.90;99.90;;;;;;5096572;28;21009;-68
2020/12/10 02:27:44;;;;;;;18.97;10.13;;;1.90;99.90;;;;;;5096578;28;20443;-68
2020/12/10 02:30:10;;;;;;;18.57;8.80;;;1.80;99.90;;;;;;5096413;28;20463;-68
2020/12/10 02:32:36;;;;;;;22.77;10.67;;;1.90;99.90;;;;;;5096460;28;20462;-69
2020/12/10 02:35:03;;;;;;;17.67;9.77;;;1.90;99.90;;;;;;5096080;28;20471;-68
2020/12/10 02:37:29;;;;;;;19.43;9.53;;;1.90;99.90;;;;;;5096383;28;20506;-70
2020/12/10 02:39:56;;;;;;;20.83;10.50;;;2.00;99.90;;;;;;5096261;28;20467;-69
2020/12/10 02:42:22;;;;;;;17.00;9.13;;;2.00;99.90;;;;;;5096314;28;20455;-69
2020/12/10 02:44:48;;;;;;;17.00;8.90;;;2.00;99.90;;;;;;5096149;28;20461;-69
2020/12/10 02:47:15;;;;;;;16.43;8.80;;;2.00;99.90;;;;;;5096209;28;20466;-68
2020/12/10 02:49:41;;;;;;;19.47;9.40;;;2.00;99.90;;;;;;5095894;28;20428;-69
2020/12/10 02:52:07;;;;;;;16.13;9.20;;;1.90;99.90;;;;;;5095766;28;20971;-68
2020/12/10 02:54:33;;;;;;;18.30;9.60;;;1.90;99.90;;;;;;5096061;28;20444;-69
2020/12/10 02:57:01;;;;;;;16.50;8.93;;;1.90;99.90;;;;;;5095702;28;20958;-68
2020/12/10 02:59:27;;;;;;;15.87;8.30;;;1.90;99.90;;;;;;5095870;28;20414;-69
2020/12/10 03:01:53;;;;;;;15.43;8.43;;;1.90;99.90;;;;;;5095892;28;20447;-69
2020/12/10 03:04:20;;;;;;;19.70;8.90;;;1.90;99.90;;;;;;5095453;28;20965;-69
2020/12/10 03:06:46;;;;;;;18.20;9.70;;;1.90;99.90;;;;;;5095523;28;20444;-69
2020/12/10 03:09:12;;;;;;;14.07;8.40;;;1.90;99.90;;;;;;5095750;28;20429;-69
2020/12/10 03:11:38;;;;;;;17.00;8.30;;;1.90;99.90;;;;;;5095598;28;20471;-68
2020/12/10 03:14:05;;;;;;;15.47;8.03;;;1.90;99.90;;;;;;5095693;28;20435;-68
2020/12/10 03:16:31;;;;;;;13.90;8.30;;;1.90;99.90;;;;;;5095632;28;20515;-69
2020/12/10 03:18:57;;;;;;;18.83;9.00;;;1.90;99.90;;;;;;5095567;28;20443;-69
2020/12/10 03:21:24;;;;;;;16.40;9.10;;;1.80;99.90;;;;;;5095107;28;20460;-69
2020/12/10 03:23:50;;;;;;;16.73;8.60;;;1.80;99.90;;;;;;5096026;28;20457;-69
2020/12/10 03:26:16;;;;;;;16.17;8.07;;;1.90;99.90;;;;;;5095366;28;20476;-69
2020/12/10 03:28:42;;;;;;;11.93;6.70;;;1.90;99.90;;;;;;5095346;28;20419;-69
2020/12/10 03:31:09;;;;;;;17.07;8.67;;;2.00;99.90;;;;;;5095282;28;20498;-69
2020/12/10 03:33:35;;;;;;;15.23;8.43;;;2.00;99.90;;;;;;5095310;28;20444;-69
2020/12/10 03:36:02;;;;;;;16.40;8.00;;;2.00;99.90;;;;;;5094768;28;20980;-69
2020/12/10 03:38:28;;;;;;;14.47;8.73;;;2.10;99.90;;;;;;5095177;28;20443;-69
2020/12/10 03:40:54;;;;;;;14.90;8.87;;;2.00;99.90;;;;;;5095041;28;20460;-70
2020/12/10 03:43:20;;;;;;;15.80;9.10;;;1.90;99.90;;;;;;5095115;28;20440;-69
2020/12/10 03:45:46;;;;;;;17.50;8.83;;;2.00;99.90;;;;;;5095029;28;20446;-67
2020/12/10 03:48:14;;;;;;;22.57;10.53;;;1.90;99.90;;;;;;5095053;28;20502;-67
2020/12/10 03:50:40;;;;;;;25.83;9.80;;;1.90;99.90;;;;;;5094895;28;20465;-68
2020/12/10 03:53:06;;;;;;;15.87;8.37;;;2.00;99.90;;;;;;5094600;28;20444;-67
2020/12/10 03:55:33;;;;;;;14.80;8.53;;;1.90;99.90;;;;;;5094872;28;20436;-67
2020/12/10 03:57:59;;;;;;;18.90;8.43;;;1.90;99.90;;;;;;5094521;28;20931;-68
2020/12/10 04:00:25;;;;;;;18.37;9.50;;;1.90;99.90;;;;;;5094746;28;20460;-68
2020/12/10 04:02:51;;;;;;;19.57;10.17;;;1.90;99.90;;;;;;5094738;28;20447;-68
2020/12/10 04:05:18;;;;;;;20.00;9.17;;;1.90;99.90;;;;;;5094580;28;20461;-68
2020/12/10 04:07:45;;;;;;;20.73;10.00;;;1.80;99.90;;;;;;5094781;28;20440;-67
2020/12/10 04:10:11;;;;;;;18.70;10.10;;;1.90;99.90;;;;;;5094529;28;20430;-67
2020/12/10 04:12:37;;;;;;;19.00;9.70;;;1.90;99.90;;;;;;5094515;28;20875;-67
2020/12/10 04:15:03;;;;;;;19.67;10.20;;;1.90;99.90;;;;;;5094500;28;20432;-67
2020/12/10 04:17:30;;;;;;;19.10;9.17;;;1.90;99.90;;;;;;5094132;28;20929;-67
2020/12/10 04:19:56;;;;;;;19.87;9.60;;;1.90;99.90;;;;;;5094359;28;20434;-68
2020/12/10 04:22:23;;;;;;;17.20;8.53;;;1.90;99.90;;;;;;5094361;28;20439;-68
2020/12/10 04:24:49;;;;;;;20.30;9.60;;;1.90;99.90;;;;;;5094221;28;20436;-68
2020/12/10 04:27:15;;;;;;;18.00;8.87;;;1.80;99.90;;;;;;5093966;28;20422;-68
2020/12/10 04:29:41;;;;;;;13.80;8.70;;;1.80;99.90;;;;;;5094164;28;20444;-68
2020/12/10 04:32:08;;;;;;;13.97;8.00;;;1.80;99.90;;;;;;5093856;28;20440;-68
2020/12/10 04:34:34;;;;;;;15.73;8.53;;;1.80;99.90;;;;;;5093354;28;20450;-68
2020/12/10 04:37:00;;;;;;;16.20;8.50;;;1.80;99.90;;;;;;5094116;28;20411;-67
2020/12/10 04:39:27;;;;;;;13.93;9.00;;;1.80;99.90;;;;;;5094063;28;20440;-68
2020/12/10 04:41:53;;;;;;;17.40;9.60;;;1.80;99.90;;;;;;5094015;28;20447;-67
2020/12/10 04:44:19;;;;;;;14.47;8.40;;;1.80;99.90;;;;;;5093630;28;20803;-68
2020/12/10 04:46:46;;;;;;;17.90;9.00;;;1.80;99.90;;;;;;5093854;28;20479;-68
2020/12/10 04:49:13;;;;;;;13.00;8.07;;;1.80;99.90;;;;;;5093913;28;20442;-68
2020/12/10 04:51:41;;;;;;;17.50;8.00;;;1.70;99.90;;;;;;5093831;28;20502;-68
2020/12/10 04:54:08;;;;;;;15.60;8.70;;;1.80;99.90;;;;;;5093840;28;20435;-68
2020/12/10 04:56:35;;;;;;;16.50;8.63;;;1.80;99.90;;;;;;5093484;28;20919;-68
2020/12/10 04:59:03;;;;;;;18.70;10.33;;;1.80;99.90;;;;;;5093743;28;20444;-68
2020/12/10 05:01:29;;;;;;;20.80;12.00;;;1.70;99.90;;;;;;5093671;28;20569;-67
2020/12/10 05:03:58;;;;;;;18.13;10.37;;;1.70;99.90;;;;;;5093676;28;20440;-68
2020/12/10 05:06:26;;;;;;;17.17;8.90;;;1.70;99.90;;;;;;5093577;28;20452;-68
2020/12/10 05:08:52;;;;;;;18.27;9.30;;;1.70;99.90;;;;;;5093609;28;20417;-68
2020/12/10 05:11:33;;;;;;;22.90;10.60;;;1.70;99.90;;;;;;5093512;28;20483;-69
2020/12/10 05:14:00;;;;;;;22.10;11.13;;;1.70;99.90;;;;;;5093589;28;20424;-68
2020/12/10 05:16:26;;;;;;;19.73;9.57;;;1.70;99.90;;;;;;5093539;28;20493;-68
2020/12/10 05:18:53;;;;;;;15.47;8.77;;;1.70;99.90;;;;;;5093529;28;20440;-68
2020/12/10 05:21:19;;;;;;;16.43;7.87;;;1.80;99.90;;;;;;5093417;28;20513;-68
2020/12/10 05:23:45;;;;;;;17.23;8.83;;;1.80;99.90;;;;;;5093158;28;20962;-68
2020/12/10 05:26:11;;;;;;;16.97;9.33;;;1.80;99.90;;;;;;5093053;28;21010;-68
2020/12/10 05:28:42;;;;;;;21.90;11.37;;;1.80;99.90;;;;;;5093107;28;20789;-68
2020/12/10 05:31:11;;;;;;;19.30;9.30;;;1.80;99.90;;;;;;5093319;28;20483;-68
2020/12/10 05:33:50;;;;;;;23.70;10.93;;;1.80;99.90;;;;;;5093399;28;20440;-68
2020/12/10 05:36:16;;;;;;;26.63;13.43;;;1.80;99.90;;;;;;5092983;28;20479;-69
2020/12/10 05:39:00;;;;;;;24.67;12.20;;;1.80;99.90;;;;;;5093403;28;20414;-68
2020/12/10 05:41:26;;;;;;;25.90;12.03;;;1.90;99.90;;;;;;5093010;28;20438;-67
2020/12/10 05:43:53;;;;;;;26.73;12.57;;;1.90;99.90;;;;;;5092994;28;20901;-68
2020/12/10 05:46:22;;;;;;;26.23;12.43;;;1.90;99.90;;;;;;5095831;28;20505;-69
2020/12/10 05:48:49;;;;;;;25.40;12.20;;;2.00;99.90;;;;;;5097324;28;20414;-69
2020/12/10 05:51:20;;;;;;;27.70;11.97;;;2.10;99.90;;;;;;5096912;28;20434;-68
2020/12/10 05:53:47;;;;;;;22.93;10.97;;;2.00;99.90;;;;;;5097268;28;20427;-69
2020/12/10 05:56:15;;;;;;;29.63;12.77;;;2.00;99.90;;;;;;5097180;28;20414;-69
2020/12/10 05:58:52;;;;;;;27.03;11.57;;;2.00;99.90;;;;;;5096868;28;20421;-69
2020/12/10 06:01:26;;;;;;;25.90;11.83;;;2.10;99.90;;;;;;5096734;28;20440;-68
2020/12/10 06:03:53;;;;;;;20.50;11.50;;;2.00;99.90;;;;;;5097089;28;20429;-69
2020/12/10 06:06:20;;;;;;;25.77;12.07;;;2.00;99.90;;;;;;5096610;28;20485;-68
2020/12/10 06:08:49;;;;;;;29.50;10.60;;;2.00;99.90;;;;;;5096964;28;20451;-68
2020/12/10 06:11:18;;;;;;;25.30;11.00;;;1.90;99.90;;;;;;5096841;28;20469;-69
2020/12/10 06:13:45;;;;;;;31.53;12.30;;;1.90;99.90;;;;;;5096879;28;20410;-68
2020/12/10 06:16:15;;;;;;;27.00;12.13;;;1.80;99.90;;;;;;5096758;28;20439;-68
2020/12/10 06:19:00;;;;;;;22.53;11.33;;;1.70;99.90;;;;;;5096399;28;20983;-69
2020/12/10 06:21:42;;;;;;;23.30;11.20;;;1.60;99.90;;;;;;5096690;28;20510;-68
2020/12/10 06:24:34;;;;;;;28.60;14.20;;;1.70;99.90;;;;;;5096702;28;20410;-68
2020/12/10 06:27:06;;;;;;;26.40;13.10;;;1.80;99.90;;;;;;5096317;28;21014;-68
2020/12/10 06:29:34;;;;;;;25.97;11.70;;;1.80;99.90;;;;;;5096509;28;20443;-68
2020/12/10 06:32:02;;;;;;;26.70;11.77;;;1.80;99.90;;;;;;5096197;28;20440;-68
2020/12/10 06:34:37;;;;;;;25.80;11.90;;;1.80;99.90;;;;;;5095942;28;20483;-68
2020/12/10 06:37:23;;;;;;;28.70;11.90;;;1.70;99.90;;;;;;5096423;28;20439;-68
2020/12/10 06:39:52;;;;;;;23.20;10.13;;;1.70;99.90;;;;;;5096282;28;20478;-68
2020/12/10 06:42:19;;;;;;;29.60;11.63;;;1.70;99.90;;;;;;5096264;28;20447;-68
2020/12/10 06:44:45;;;;;;;29.63;11.97;;;1.60;99.90;;;;;;5096288;28;20447;-68
2020/12/10 06:47:12;;;;;;;33.70;11.67;;;1.70;99.90;;;;;;5095841;28;20458;-68
2020/12/10 06:49:39;;;;;;;20.97;10.40;;;1.70;99.90;;;;;;5096087;28;20440;-68
2020/12/10 06:52:13;;;;;;;25.53;12.17;;;1.70;99.90;;;;;;5095814;28;20962;-68
2020/12/10 06:55:05;;;;;;;21.70;11.40;;;1.70;99.90;;;;;;5096594;28;20423;-68
2020/12/10 06:58:02;;;;;;;29.37;13.67;;;1.70;99.90;;;;;;5095605;28;20439;-68
2020/12/10 07:00:41;;;;;;;22.53;12.40;;;1.70;99.90;;;;;;5095906;28;20491;-68
2020/12/10 07:03:13;;;;;;;25.27;11.67;;;1.70;99.90;;;;;;5096221;28;20514;-68
2020/12/10 07:05:41;;;;;;;27.10;11.70;;;1.60;99.90;;;;;;5095794;28;20434;-68
2020/12/10 07:08:08;;;;;;;31.10;11.90;;;1.60;99.90;;;;;;5095823;28;20439;-68
2020/12/10 07:10:44;;;;;;;26.73;11.37;;;1.70;99.90;;;;;;5095350;28;20975;-69
2020/12/10 07:13:11;;;;;;;18.30;9.00;;;1.70;99.90;;;;;;5095639;28;20431;-70
2020/12/10 07:15:37;;;;;;;12.47;6.50;;;1.70;99.90;;;;;;5095727;28;20424;-70
2020/12/10 07:18:05;;;;;;;21.60;11.13;;;1.80;99.90;;;;;;5095629;28;20436;-70
2020/12/10 07:20:33;;;;;;;22.17;11.00;;;1.70;99.90;;;;;;5095215;28;21005;-70
2020/12/10 07:23:01;;;;;;;22.67;10.60;;;1.70;99.90;;;;;;5095521;28;20503;-70
2020/12/10 07:25:28;;;;;;;19.13;10.13;;;1.70;99.90;;;;;;5095140;28;20551;-70
2020/12/10 07:27:55;;;;;;;28.43;11.97;;;1.60;99.90;;;;;;5095495;28;20424;-70
2020/12/10 07:30:23;;;;;;;22.00;10.90;;;1.70;99.90;;;;;;5095077;28;20993;-70
2020/12/10 07:32:53;;;;;;;23.00;10.10;;;1.60;99.90;;;;;;5095348;28;20531;-70
2020/12/10 07:35:30;;;;;;;19.27;9.47;;;1.70;99.90;;;;;;5095005;28;20498;-70
2020/12/10 07:38:08;;;;;;;24.93;10.70;;;1.80;99.90;;;;;;5095321;28;20416;-70
2020/12/10 07:40:34;;;;;;;24.07;10.93;;;1.80;99.90;;;;;;5095137;28;20466;-70
2020/12/10 07:43:05;;;;;;;24.93;11.43;;;1.80;99.90;;;;;;5095197;28;20421;-70
2020/12/10 07:45:32;;;;;;;19.17;9.80;;;1.90;99.90;;;;;;5095063;28;20470;-70
2020/12/10 07:48:00;;;;;;;17.63;9.27;;;1.90;99.90;;;;;;5095027;28;20442;-70
2020/12/10 07:50:27;;;;;;;21.30;9.27;;;1.90;99.90;;;;;;5094935;28;20456;-70
2020/12/10 07:52:54;;;;;;;21.57;9.97;;;1.90;99.90;;;;;;5094665;28;20931;-70
2020/12/10 07:55:23;;;;;;;24.57;11.50;;;1.90;99.90;;;;;;5094614;28;20407;-70
2020/12/10 07:58:00;;;;;;;19.47;9.70;;;1.80;99.90;;;;;;5094844;28;20448;-70
2020/12/10 08:00:28;;;;;;;23.53;10.87;;;1.80;99.90;;;;;;5094779;28;20502;-70
2020/12/10 08:03:17;;;;;;;20.70;10.00;;;1.90;99.90;;;;;;5094737;28;20444;-70
2020/12/10 08:05:44;;;;;;;20.93;10.43;;;1.90;99.90;;;;;;5086484;28;20515;-70
2020/12/10 08:08:11;;;;;;;27.57;11.50;;;1.90;99.90;;;;;;5093849;28;20421;-70
2020/12/10 08:10:40;;;;;;;25.50;10.83;;;2.00;99.90;;;;;;5094530;28;20434;-70
2020/12/10 08:13:14;;;;;;;26.10;11.83;;;2.00;99.90;;;;;;5094643;28;20399;-70
2020/12/10 08:15:41;;;;;;;22.80;11.40;;;2.00;99.90;;;;;;5094597;28;20421;-70
2020/12/10 08:18:09;;;;;;;26.40;12.40;;;2.10;99.90;;;;;;5094220;28;20764;-72
2020/12/10 08:20:42;;;;;;;26.13;12.40;;;2.10;99.90;;;;;;5094078;28;20464;-70
2020/12/10 08:23:09;;;;;;;29.13;12.73;;;2.20;99.90;;;;;;5094467;28;20395;-70
2020/12/10 08:25:35;;;;;;;25.23;11.93;;;2.10;99.90;;;;;;5093960;28;21002;-70
2020/12/10 08:28:05;;;;;;;26.30;11.23;;;2.10;99.90;;;;;;5094330;28;20433;-70
2020/12/10 08:30:31;;;;;;;25.33;12.20;;;2.10;99.90;;;;;;5093843;28;20542;-70
2020/12/10 08:32:59;;;;;;;29.13;12.37;;;2.20;99.90;;;;;;5094317;28;20400;-70
2020/12/10 08:35:25;;;;;;;25.00;12.60;;;2.30;99.90;;;;;;5093831;28;20471;-70
2020/12/10 08:37:52;;;;;;;31.03;12.73;;;2.20;99.90;;;;;;5094142;28;20423;-70
2020/12/10 08:40:25;;;;;;;24.83;11.90;;;2.20;99.90;;;;;;5094007;28;20460;-70
2020/12/10 08:42:53;;;;;;;27.10;13.50;;;2.10;99.90;;;;;;5094023;28;20395;-70
2020/12/10 08:45:30;;;;;;;27.07;12.53;;;2.20;99.90;;;;;;5093995;28;20402;-70
2020/12/10 08:47:58;;;;;;;27.30;12.47;;;2.30;99.90;;;;;;5094464;28;20406;-70
2020/12/10 08:50:26;;;;;;;20.50;10.50;;;2.10;99.90;;;;;;5093795;28;20805;-70
2020/12/10 08:53:04;;;;;;;22.20;10.10;;;2.10;99.90;;;;;;5093895;28;20928;-70
2020/12/10 08:55:37;;;;;;;32.07;12.57;;;2.10;99.90;;;;;;5093902;28;20398;-70
2020/12/10 08:58:04;;;;;;;25.07;11.63;;;2.10;99.90;;;;;;5093830;28;20478;-70
2020/12/10 09:00:31;;;;;;;22.40;10.90;;;2.10;99.90;;;;;;5093362;28;20456;-70
2020/12/10 09:02:57;;;;;;;23.37;10.70;;;2.10;99.90;;;;;;5093740;28;20443;-70
2020/12/10 09:05:23;;;;;;;21.93;10.30;;;2.10;99.90;;;;;;5093560;28;20418;-70
2020/12/10 09:07:49;;;;;;;14.90;8.17;;;2.10;99.90;;;;;;5093705;28;20427;-70
2020/12/10 09:10:16;;;;;;;17.03;9.27;;;2.20;99.90;;;;;;5093233;28;20975;-70
2020/12/10 09:12:42;;;;;;;16.73;9.10;;;2.30;99.90;;;;;;5093647;28;20419;-70
2020/12/10 09:15:08;;;;;;;11.67;7.27;;;2.30;99.90;;;;;;5093318;28;20440;-70
2020/12/10 09:17:36;;;;;;;12.00;6.60;;;2.20;99.90;;;;;;5093560;28;20451;-70
2020/12/10 09:20:02;;;;;;;14.20;7.70;;;2.10;99.90;;;;;;5093064;28;20970;-70
2020/12/10 09:22:28;;;;;;;13.30;6.67;;;2.10;99.90;;;;;;5093530;28;20439;-70
2020/12/10 09:24:56;;;;;;;13.97;7.10;;;2.20;99.90;;;;;;5093500;28;20440;-70
2020/12/10 09:27:22;;;;;;;12.37;7.70;;;2.10;99.90;;;;;;5093436;28;20486;-70
2020/12/10 09:29:49;;;;;;;9.87;5.83;;;2.00;99.90;;;;;;5093390;28;20826;-71
2020/12/10 09:32:15;;;;;;;9.40;5.40;;;2.00;99.90;;;;;;5093435;28;20440;-70
2020/12/10 09:34:42;;;;;;;10.63;6.23;;;2.10;99.90;;;;;;5093113;28;20476;-70
2020/12/10 09:37:09;;;;;;;9.27;5.90;;;2.10;99.90;;;;;;5093350;28;20440;-70
2020/12/10 09:39:36;;;;;;;11.57;6.73;;;2.00;99.90;;;;;;5092969;28;20421;-70
2020/12/10 09:42:03;;;;;;;9.67;6.53;;;2.10;99.90;;;;;;5093023;28;20965;-70
2020/12/10 09:44:29;;;;;;;9.77;6.37;;;2.10;99.90;;;;;;5093494;28;20497;-70
2020/12/10 09:46:55;;;;;;;10.10;6.33;;;2.10;99.90;;;;;;5093204;28;20490;-70
2020/12/10 09:49:23;;;;;;;10.50;6.63;;;2.20;99.90;;;;;;5093284;28;20440;-70
2020/12/10 09:51:53;;;;;;;7.37;4.83;;;2.10;99.90;;;;;;5092860;28;20471;-70
2020/12/10 09:54:26;;;;;;;8.40;4.70;;;2.20;99.90;;;;;;5092965;28;20427;-70
2020/12/10 09:57:05;;;;;;;8.87;5.70;;;2.20;99.90;;;;;;5093275;28;20863;-70
2020/12/10 09:59:34;;;;;;;10.17;5.40;;;2.20;99.90;;;;;;5093155;28;20438;-70
2020/12/10 10:02:00;;;;;;;8.40;5.40;;;2.30;99.90;;;;;;5093141;28;20863;-70
2020/12/10 10:04:27;;;;;;;8.77;5.50;;;2.40;99.90;;;;;;5093115;28;20446;-70
2020/12/10 10:06:54;;;;;;;8.17;4.93;;;2.30;99.90;;;;;;5093033;28;20475;-70
2020/12/10 10:09:20;;;;;;;9.70;5.70;;;2.60;99.90;;;;;;5093094;28;20797;-70
2020/12/10 10:11:47;;;;;;;8.70;6.07;;;2.60;99.90;;;;;;5092975;28;20525;-70
2020/12/10 10:14:13;;;;;;;12.23;6.20;;;2.50;99.90;;;;;;5093083;28;20441;-70
2020/12/10 10:16:39;;;;;;;10.33;5.80;;;2.60;99.90;;;;;;5092945;28;20432;-70
2020/12/10 10:19:05;;;;;;;8.57;5.80;;;2.60;99.90;;;;;;5092998;28;20466;-70
2020/12/10 10:21:31;;;;;;;6.37;5.00;;;2.60;99.90;;;;;;5092935;28;20468;-70
2020/12/10 10:23:59;;;;;;;9.70;5.60;;;2.60;99.90;;;;;;5092984;28;20424;-70
2020/12/10 10:26:25;;;;;;;10.17;6.03;;;2.60;99.90;;;;;;5092864;28;20461;-70
2020/12/10 10:28:53;;;;;;;9.97;6.53;;;2.50;99.90;;;;;;5092619;28;20424;-70
2020/12/10 10:31:19;;;;;;;11.13;5.73;;;2.50;99.90;;;;;;5093393;28;20849;-70
2020/12/10 10:33:46;;;;;;;8.37;5.23;;;2.50;99.90;;;;;;5096750;28;20425;-70
2020/12/10 10:36:13;;;;;;;11.47;5.83;;;2.60;99.90;;;;;;5096050;28;20471;-70
2020/12/10 10:38:39;;;;;;;8.47;5.80;;;2.60;99.90;;;;;;5096447;28;20431;-70
2020/12/10 10:41:06;;;;;;;9.80;6.43;;;2.70;99.90;;;;;;5096328;28;20456;-70
2020/12/10 10:43:35;;;;;;;12.70;6.43;;;2.70;99.90;;;;;;5096080;28;20900;-70
2020/12/10 10:46:01;;;;;;;9.47;5.33;;;2.70;99.90;;;;;;5095904;28;20836;-70
2020/12/10 10:48:27;;;;;;;11.07;6.03;;;2.70;99.90;;;;;;5096257;28;20417;-70
2020/12/10 10:50:53;;;;;;;7.23;5.00;;;2.70;99.90;;;;;;5095826;28;20993;-70
2020/12/10 10:53:20;;;;;;;9.70;6.63;;;2.80;99.90;;;;;;5096111;28;20428;-70
2020/12/10 10:55:48;;;;;;;9.10;6.27;;;2.70;99.90;;;;;;5096110;28;20503;-70
2020/12/10 10:58:15;;;;;;;10.90;7.10;;;2.70;99.90;;;;;;5095811;28;20883;-70
2020/12/10 11:00:41;;;;;;;17.57;8.10;;;2.70;99.90;;;;;;5095918;28;20464;-70
2020/12/10 11:03:07;;;;;;;13.73;8.00;;;2.70;99.90;;;;;;5095959;28;20424;-70
2020/12/10 11:05:34;;;;;;;14.57;8.03;;;2.70;99.90;;;;;;5095844;28;20466;-70
2020/12/10 11:08:00;;;;;;;12.03;7.10;;;2.80;99.90;;;;;;5095889;28;20431;-70
2020/12/10 11:10:26;;;;;;;13.87;7.20;;;2.80;99.90;;;;;;5095469;28;20961;-70
2020/12/10 11:12:52;;;;;;;13.73;8.30;;;2.70;99.90;;;;;;5095834;28;20413;-70
2020/12/10 11:15:19;;;;;;;11.27;7.27;;;2.70;99.90;;;;;;5095817;28;20420;-70
2020/12/10 11:17:45;;;;;;;15.90;7.30;;;2.70;99.90;;;;;;5095757;28;20412;-70
2020/12/10 11:20:12;;;;;;;12.50;7.53;;;2.70;99.90;;;;;;5095298;28;20474;-70
2020/12/10 11:22:39;;;;;;;14.87;8.13;;;2.70;99.90;;;;;;5095642;28;20424;-70
2020/12/10 11:25:05;;;;;;;15.70;9.00;;;2.70;99.90;;;;;;5095239;28;20908;-70
2020/12/10 11:27:32;;;;;;;16.53;9.10;;;2.70;99.90;;;;;;5096045;28;20467;-70
2020/12/10 11:29:58;;;;;;;14.77;7.80;;;2.70;99.90;;;;;;5095370;28;20460;-70
2020/12/10 11:32:25;;;;;;;16.40;9.20;;;2.70;99.90;;;;;;5095087;28;20899;-70
2020/12/10 11:34:52;;;;;;;16.60;9.50;;;2.70;99.90;;;;;;5094829;28;21012;-70
2020/12/10 11:37:19;;;;;;;16.97;8.87;;;2.70;99.90;;;;;;5095178;28;20436;-70
2020/12/10 11:39:45;;;;;;;15.83;8.57;;;2.70;99.90;;;;;;5095009;28;20403;-70
2020/12/10 11:42:11;;;;;;;18.00;10.20;;;2.80;99.90;;;;;;5094431;28;20868;-70
2020/12/10 11:44:40;;;;;;;15.70;9.63;;;2.70;99.90;;;;;;5094496;28;20429;-70
2020/12/10 11:47:06;;;;;;;21.10;10.00;;;2.70;99.90;;;;;;5095049;28;20471;-70
2020/12/10 11:49:34;;;;;;;18.47;9.70;;;2.60;99.90;;;;;;5094978;28;20399;-70
2020/12/10 11:52:00;;;;;;;19.70;9.30;;;2.70;99.90;;;;;;5094973;28;20407;-70
2020/12/10 11:54:26;;;;;;;19.37;9.73;;;2.80;99.90;;;;;;5094997;28;20425;-70
2020/12/10 11:56:55;;;;;;;19.70;10.03;;;2.80;99.90;;;;;;5094922;28;20528;-70
2020/12/10 11:59:21;;;;;;;20.93;10.20;;;2.70;99.90;;;;;;5094913;28;20401;-70
2020/12/10 12:01:48;;;;;;;18.07;10.30;;;2.70;99.90;;;;;;5094484;28;20467;-70
2020/12/10 12:04:14;;;;;;;16.80;9.83;;;2.70;99.90;;;;;;5094775;28;20425;-70
2020/12/10 12:06:41;;;;;;;19.80;9.57;;;2.70;99.90;;;;;;5094673;28;20469;-70
2020/12/10 12:09:08;;;;;;;21.67;10.37;;;2.70;99.90;;;;;;5094680;28;20406;-71
2020/12/10 12:11:34;;;;;;;15.13;8.80;;;2.70;99.90;;;;;;5094562;28;20464;-70
2020/12/10 12:14:00;;;;;;;21.57;10.87;;;2.70;99.90;;;;;;5094598;28;20772;-70
2020/12/10 12:16:26;;;;;;;22.53;10.10;;;2.80;99.90;;;;;;5094591;28;20416;-70
2020/12/10 12:18:53;;;;;;;23.60;9.93;;;2.70;99.90;;;;;;5094502;28;20424;-70
2020/12/10 12:21:23;;;;;;;21.73;10.00;;;2.70;99.90;;;;;;5093922;28;20990;-70
2020/12/10 12:23:51;;;;;;;20.90;10.03;;;2.80;99.90;;;;;;5094429;28;20420;-70
2020/12/10 12:26:18;;;;;;;22.30;11.10;;;2.80;99.90;;;;;;5094204;28;20463;-70
2020/12/10 12:28:48;;;;;;;19.60;10.60;;;2.80;99.90;;;;;;5094338;28;20478;-70
2020/12/10 12:31:15;;;;;;;19.50;10.00;;;2.80;99.90;;;;;;5094207;28;20463;-71
2020/12/10 12:33:41;;;;;;;18.27;9.20;;;2.80;99.90;;;;;;5094230;28;20448;-70
2020/12/10 12:36:08;;;;;;;17.30;8.60;;;2.80;99.90;;;;;;5093684;28;20470;-70
2020/12/10 12:38:34;;;;;;;20.17;9.77;;;2.90;99.90;;;;;;5094089;28;20908;-71
2020/12/10 12:41:01;;;;;;;16.40;9.20;;;2.80;99.90;;;;;;5093705;28;20456;-71
2020/12/10 12:43:28;;;;;;;19.13;9.57;;;2.90;99.90;;;;;;5094069;28;20447;-70
2020/12/10 12:45:54;;;;;;;21.47;10.30;;;3.00;99.90;;;;;;5093910;28;20425;-71